createdAt,value
2018-07-06T00:00:26.865Z,41.00
2018-07-06T00:03:14.052Z,41.20
2018-07-06T00:06:00.270Z,41.00
2018-07-06T00:08:46.599Z,41.10
2018-07-06T00:11:32.704Z,41.20
2018-07-06T00:14:18.912Z,41.10
2018-07-06T00:17:05.634Z,41.20
2018-07-06T00:19:51.911Z,41.10
2018-07-06T00:22:37.841Z,41.20
2018-07-06T00:25:24.167Z,41.10
2018-07-06T00:28:10.420Z,40.80
2018-07-06T00:30:56.772Z,41.10
2018-07-06T00:33:44.191Z,41.00
2018-07-06T00:36:31.844Z,40.90
2018-07-06T00:39:18.371Z,41.00
2018-07-06T00:42:06.987Z,41.10
2018-07-06T00:44:53.171Z,41.00
2018-07-06T00:47:39.492Z,41.10
2018-07-06T00:50:25.675Z,41.20
2018-07-06T00:53:11.956Z,41.20
2018-07-06T00:55:58.178Z,41.20
2018-07-06T00:58:46.548Z,41.10
2018-07-06T01:01:34.175Z,40.90
2018-07-06T01:04:21.165Z,40.90
2018-07-06T01:07:07.575Z,40.90
2018-07-06T01:09:53.682Z,41.00
2018-07-06T01:12:45.550Z,41.10
2018-07-06T01:15:34.665Z,41.10
2018-07-06T01:18:22.056Z,41.10
2018-07-06T01:21:09.543Z,40.90
2018-07-06T01:23:56.045Z,41.10
2018-07-06T01:26:42.143Z,41.10
2018-07-06T01:29:28.340Z,41.10
2018-07-06T01:32:15.211Z,41.10
2018-07-06T01:35:01.957Z,41.10
2018-07-06T01:37:48.987Z,40.80
2018-07-06T01:40:35.796Z,41.10
2018-07-06T01:43:22.016Z,41.10
2018-07-06T01:46:08.308Z,41.00
2018-07-06T01:48:54.517Z,40.90
2018-07-06T01:51:40.848Z,40.90
2018-07-06T01:54:27.023Z,41.10
2018-07-06T01:57:12.868Z,41.00
2018-07-06T01:59:59.075Z,41.00
2018-07-06T02:02:45.377Z,41.10
2018-07-06T02:05:31.466Z,41.10
2018-07-06T02:08:17.672Z,41.10
2018-07-06T02:11:03.885Z,41.10
2018-07-06T02:13:50.153Z,41.80
2018-07-06T02:19:07.287Z,41.20
2018-07-06T02:24:34.821Z,41.20
2018-07-06T02:27:21.271Z,41.60
2018-07-06T02:30:07.728Z,41.20
2018-07-06T02:32:54.053Z,40.90
2018-07-06T02:35:40.285Z,41.10
2018-07-06T02:38:26.740Z,41.10
2018-07-06T02:41:13.181Z,41.00
2018-07-06T02:43:59.656Z,41.00
2018-07-06T02:46:46.036Z,41.10
2018-07-06T02:49:32.471Z,41.10
2018-07-06T02:52:18.779Z,41.20
2018-07-06T02:55:05.036Z,41.00
2018-07-06T02:57:51.549Z,41.80
2018-07-06T03:00:38.120Z,41.70
2018-07-06T03:03:24.511Z,41.10
2018-07-06T03:06:11.121Z,41.10
2018-07-06T03:09:00.849Z,41.10
2018-07-06T03:11:47.223Z,41.10
2018-07-06T03:14:33.760Z,41.10
2018-07-06T03:17:20.265Z,41.10
2018-07-06T03:20:06.675Z,41.10
2018-07-06T03:22:53.115Z,41.10
2018-07-06T03:25:39.651Z,41.10
2018-07-06T03:28:26.302Z,41.20
2018-07-06T03:31:12.546Z,41.20
2018-07-06T03:34:00.478Z,41.20
2018-07-06T03:36:46.616Z,41.20
2018-07-06T03:39:32.827Z,41.20
2018-07-06T03:42:19.220Z,41.20
2018-07-06T03:45:05.514Z,41.20
2018-07-06T03:47:51.871Z,41.20
2018-07-06T03:50:38.173Z,41.20
2018-07-06T03:53:24.563Z,41.20
2018-07-06T03:56:10.849Z,41.20
2018-07-06T03:58:57.013Z,41.20
2018-07-06T04:01:43.352Z,41.20
2018-07-06T04:04:29.760Z,41.20
2018-07-06T04:07:16.346Z,41.20
2018-07-06T04:10:02.888Z,41.40
2018-07-06T04:12:49.259Z,41.20
2018-07-06T04:15:38.598Z,41.20
2018-07-06T04:18:25.085Z,41.20
2018-07-06T04:21:11.719Z,41.20
2018-07-06T04:23:59.248Z,41.20
2018-07-06T04:26:45.524Z,41.20
2018-07-06T04:29:31.964Z,41.20
2018-07-06T04:32:18.450Z,41.20
2018-07-06T04:35:04.927Z,41.20
2018-07-06T04:37:51.496Z,41.20
2018-07-06T04:40:37.929Z,41.20
2018-07-06T04:43:24.406Z,41.20
2018-07-06T04:51:32.805Z,41.20
2018-07-06T04:54:19.276Z,41.20
2018-07-06T04:57:05.618Z,41.30
2018-07-06T04:59:53.088Z,41.20
2018-07-06T05:02:39.606Z,41.30
2018-07-06T05:05:25.903Z,41.30
2018-07-06T05:08:13.600Z,41.90
2018-07-06T05:11:00.013Z,41.30
2018-07-06T05:13:47.057Z,41.20
2018-07-06T05:16:34.392Z,41.30
2018-07-06T05:19:25.144Z,41.30
2018-07-06T05:22:11.495Z,41.20
2018-07-06T05:24:58.060Z,41.30
2018-07-06T05:27:46.394Z,41.30
2018-07-06T05:30:32.756Z,41.20
2018-07-06T05:33:20.700Z,41.30
2018-07-06T05:36:06.976Z,41.30
2018-07-06T05:38:55.310Z,41.20
2018-07-06T05:41:41.795Z,41.30
2018-07-06T05:44:28.168Z,41.20
2018-07-06T05:47:16.310Z,41.90
2018-07-06T05:50:02.699Z,41.60
2018-07-06T05:52:49.124Z,42.40
2018-07-06T05:55:36.312Z,41.90
2018-07-06T05:58:22.446Z,41.80
2018-07-06T06:01:08.945Z,42.00
2018-07-06T06:03:55.421Z,42.50
2018-07-06T06:06:44.612Z,41.70
2018-07-06T06:09:12.351Z,41.90
2018-07-06T06:11:42.092Z,41.80
2018-07-06T06:14:11.304Z,41.70
2018-07-06T06:16:41.077Z,41.60
2018-07-06T06:19:10.960Z,41.70
2018-07-06T06:21:40.594Z,41.70
2018-07-06T06:24:10.704Z,41.60
2018-07-06T06:26:42.372Z,41.70
2018-07-06T06:29:12.774Z,41.80
2018-07-06T06:31:43.490Z,41.60
2018-07-06T06:34:13.084Z,41.60
2018-07-06T06:36:42.784Z,41.70
2018-07-06T06:39:13.819Z,41.70
2018-07-06T06:41:43.660Z,41.60
2018-07-06T06:44:13.622Z,41.40
2018-07-06T06:46:44.383Z,41.60
2018-07-06T06:49:14.180Z,41.60
2018-07-06T06:51:45.573Z,41.50
2018-07-06T06:54:15.803Z,41.50
2018-07-06T06:56:45.329Z,41.50
2018-07-06T06:59:15.302Z,41.50
2018-07-06T07:01:45.224Z,41.50
2018-07-06T07:04:14.766Z,41.50
2018-07-06T07:06:44.552Z,41.50
2018-07-06T07:09:19.184Z,41.60
2018-07-06T07:11:49.671Z,41.50
2018-07-06T07:14:19.281Z,41.50
2018-07-06T07:16:50.622Z,41.50
2018-07-06T07:19:20.006Z,41.80
2018-07-06T07:21:49.497Z,41.40
2018-07-06T07:24:18.850Z,41.50
2018-07-06T07:26:48.437Z,41.50
2018-07-06T07:29:18.185Z,41.50
2018-07-06T07:31:47.299Z,41.40
2018-07-06T07:34:16.445Z,41.40
2018-07-06T07:36:45.602Z,41.40
2018-07-06T07:39:14.909Z,41.30
2018-07-06T07:41:44.401Z,41.30
2018-07-06T07:44:13.557Z,41.40
2018-07-06T07:46:43.291Z,41.40
2018-07-06T07:49:12.445Z,41.40
2018-07-06T07:52:12.853Z,41.00
2018-07-06T07:54:52.100Z,41.10
2018-07-06T07:57:22.086Z,41.30
2018-07-06T07:59:53.130Z,41.30
2018-07-06T08:02:22.319Z,41.40
2018-07-06T08:04:51.839Z,41.30
2018-07-06T08:07:21.180Z,41.30
2018-07-06T08:09:50.460Z,41.20
2018-07-06T08:12:19.665Z,41.30
2018-07-06T08:14:48.744Z,41.40
2018-07-06T08:17:18.069Z,41.20
2018-07-06T08:19:47.391Z,41.10
2018-07-06T08:22:16.897Z,41.30
2018-07-06T08:24:46.170Z,41.20
2018-07-06T08:27:15.279Z,41.40
2018-07-06T08:29:44.361Z,41.20
2018-07-06T08:32:13.471Z,41.10
2018-07-06T08:34:59.979Z,40.90
2018-07-06T08:37:47.302Z,41.30
2018-07-06T08:40:16.869Z,41.20
2018-07-06T08:42:48.537Z,41.40
2018-07-06T08:45:17.699Z,41.30
2018-07-06T08:47:47.410Z,41.40
2018-07-06T08:50:16.670Z,41.30
2018-07-06T08:52:47.379Z,41.40
2018-07-06T08:55:16.920Z,41.40
2018-07-06T08:57:47.511Z,41.30
2018-07-06T09:00:16.712Z,41.30
2018-07-06T09:02:46.034Z,41.00
2018-07-06T09:05:15.335Z,40.90
2018-07-06T09:07:44.547Z,40.90
2018-07-06T09:10:13.688Z,40.90
2018-07-06T09:12:42.867Z,41.10
2018-07-06T09:15:13.605Z,40.90
2018-07-06T09:17:43.552Z,41.10
2018-07-06T09:20:13.797Z,40.90
2018-07-06T09:22:43.507Z,41.10
2018-07-06T09:25:13.565Z,40.90
2018-07-06T09:27:43.063Z,41.20
2018-07-06T09:30:12.343Z,41.10
2018-07-06T09:32:41.693Z,41.20
2018-07-06T09:35:10.828Z,41.30
2018-07-06T09:37:40.016Z,41.90
2018-07-06T09:40:10.280Z,41.30
2018-07-06T09:42:39.525Z,41.30
2018-07-06T09:45:08.879Z,41.20
2018-07-06T09:47:38.276Z,41.20
2018-07-06T09:50:07.482Z,41.20
2018-07-06T09:52:37.401Z,41.20
2018-07-06T09:55:06.722Z,41.20
2018-07-06T09:57:36.049Z,41.90
2018-07-06T10:00:05.527Z,41.20
2018-07-06T10:02:34.774Z,41.10
2018-07-06T10:05:04.207Z,41.20
2018-07-06T10:07:33.479Z,41.10
2018-07-06T10:10:02.980Z,41.20
2018-07-06T10:12:32.388Z,41.10
2018-07-06T10:15:01.668Z,41.70
2018-07-06T10:17:30.834Z,41.10
2018-07-06T10:20:00.187Z,41.00
2018-07-06T10:22:29.673Z,41.10
2018-07-06T10:24:59.102Z,41.00
2018-07-06T10:27:37.955Z,41.10
2018-07-06T10:30:28.594Z,41.10
2018-07-06T10:32:57.754Z,41.10
2018-07-06T10:35:27.615Z,41.10
2018-07-06T10:37:57.610Z,40.90
2018-07-06T10:40:27.025Z,41.00
2018-07-06T10:42:56.835Z,40.90
2018-07-06T10:45:26.016Z,41.10
2018-07-06T10:47:55.941Z,41.10
2018-07-06T10:50:26.413Z,41.10
2018-07-06T10:52:55.747Z,41.10
2018-07-06T10:55:25.485Z,41.10
2018-07-06T10:57:54.764Z,41.00
2018-07-06T11:00:25.302Z,41.10
2018-07-06T11:05:23.915Z,41.20
2018-07-06T11:07:53.194Z,41.20
2018-07-06T11:10:22.461Z,41.20
2018-07-06T11:12:52.571Z,41.80
2018-07-06T11:15:24.919Z,41.00
2018-07-06T11:17:56.650Z,41.10
2018-07-06T11:20:27.342Z,41.20
2018-07-06T11:22:57.643Z,41.10
2018-07-06T11:25:27.297Z,41.10
2018-07-06T11:27:57.010Z,41.20
2018-07-06T11:30:27.207Z,41.10
2018-07-06T11:32:56.577Z,41.10
2018-07-06T11:35:26.121Z,41.00
2018-07-06T11:37:55.854Z,41.00
2018-07-06T11:40:25.190Z,41.20
2018-07-06T11:42:55.030Z,41.10
2018-07-06T11:45:25.115Z,41.10
2018-07-06T11:47:54.390Z,41.20
2018-07-06T11:50:24.013Z,41.10
2018-07-06T11:52:53.823Z,41.20
2018-07-06T11:55:24.607Z,41.20
2018-07-06T11:57:53.943Z,41.90
2018-07-06T12:00:24.643Z,41.20
2018-07-06T12:02:56.834Z,41.20
2018-07-06T12:05:26.812Z,41.20
2018-07-06T12:07:56.559Z,41.20
2018-07-06T12:10:26.103Z,41.20
2018-07-06T12:12:55.659Z,41.20
2018-07-06T12:15:25.564Z,41.20
2018-07-06T12:20:52.072Z,41.20
2018-07-06T12:23:21.878Z,41.20
2018-07-06T12:25:51.257Z,41.20
2018-07-06T12:28:21.068Z,41.90
2018-07-06T12:30:50.599Z,41.30
2018-07-06T12:33:20.108Z,41.20
2018-07-06T12:35:49.951Z,41.20
2018-07-06T12:38:19.560Z,41.20
2018-07-06T12:40:48.869Z,42.00
2018-07-06T12:43:18.104Z,41.20
2018-07-06T12:45:47.496Z,41.20
2018-07-06T12:48:16.713Z,41.20
2018-07-06T12:50:48.849Z,41.20
2018-07-06T12:53:18.974Z,41.20
2018-07-06T12:55:50.741Z,41.20
2018-07-06T12:58:24.560Z,41.20
2018-07-06T13:00:53.834Z,41.20
2018-07-06T13:03:23.077Z,41.20
2018-07-06T13:05:52.389Z,41.20
2018-07-06T13:08:21.682Z,41.20
2018-07-06T13:10:53.565Z,41.20
2018-07-06T13:13:22.816Z,41.50
2018-07-06T13:15:52.407Z,41.40
2018-07-06T13:18:21.772Z,41.50
2018-07-06T13:20:51.144Z,40.90
2018-07-06T13:23:21.440Z,40.90
2018-07-06T13:25:50.602Z,40.70
2018-07-06T13:28:19.960Z,40.40
2018-07-06T13:30:50.050Z,39.80
2018-07-06T13:33:19.768Z,39.60
2018-07-06T13:35:48.979Z,39.30
2018-07-06T13:38:18.750Z,38.70
2018-07-06T13:40:48.040Z,38.60
2018-07-06T13:43:17.634Z,38.50
2018-07-06T13:45:47.148Z,38.40
2018-07-06T13:48:16.427Z,38.40
2018-07-06T13:53:15.735Z,38.70
2018-07-06T13:55:45.013Z,38.50
2018-07-06T13:58:14.203Z,38.40
2018-07-06T14:00:44.290Z,38.10
2018-07-06T14:03:14.468Z,38.10
2018-07-06T14:05:43.988Z,37.90
2018-07-06T14:08:13.792Z,37.90
2018-07-06T14:10:45.614Z,38.00
2018-07-06T14:13:18.060Z,37.90
2018-07-06T14:15:47.593Z,37.90
2018-07-06T14:18:17.177Z,38.00
2018-07-06T14:20:46.383Z,37.90
2018-07-06T14:23:15.629Z,37.70
2018-07-06T14:25:44.776Z,37.70
2018-07-06T14:28:13.932Z,37.70
2018-07-06T14:30:43.028Z,37.80
2018-07-06T14:33:12.407Z,37.70
2018-07-06T14:35:41.694Z,37.80
2018-07-06T14:38:11.289Z,37.70
2018-07-06T14:40:40.379Z,37.70
2018-07-06T14:43:11.670Z,37.70
2018-07-06T14:45:40.886Z,37.80
2018-07-06T14:48:10.041Z,37.70
2018-07-06T14:50:39.533Z,37.70
2018-07-06T14:53:09.291Z,37.90
2018-07-06T14:55:39.069Z,37.90
2018-07-06T14:58:08.373Z,37.80
2018-07-06T15:00:37.630Z,37.60
2018-07-06T15:03:07.114Z,37.50
2018-07-06T15:05:36.228Z,37.50
2018-07-06T15:08:05.766Z,37.50
2018-07-06T15:10:36.635Z,37.40
2018-07-06T15:13:17.077Z,37.40
2018-07-06T15:15:46.321Z,37.40
2018-07-06T15:18:23.097Z,37.40
2018-07-06T15:20:59.147Z,37.30
2018-07-06T17:16:14.304Z,39.80
2018-07-06T17:18:43.376Z,40.20
2018-07-06T17:21:13.238Z,40.70
2018-07-06T17:23:42.626Z,41.00
2018-07-06T17:26:12.441Z,41.10
2018-07-06T17:28:41.525Z,41.20
2018-07-06T17:31:10.923Z,41.40
2018-07-06T17:33:40.443Z,41.10
2018-07-06T17:36:10.326Z,41.40
2018-07-06T17:38:39.792Z,41.20
2018-07-06T17:41:11.343Z,41.20
2018-07-06T17:43:44.920Z,41.10
2018-07-06T17:46:15.214Z,41.20
2018-07-06T17:51:14.990Z,40.70
2018-07-06T17:53:44.836Z,40.90
2018-07-06T17:56:14.803Z,40.90
2018-07-06T17:58:44.761Z,40.60
2018-07-06T18:01:16.509Z,40.70
2018-07-06T18:03:45.968Z,40.90
2018-07-06T18:06:16.159Z,40.80
2018-07-06T18:08:46.507Z,41.00
2018-07-06T18:11:16.829Z,41.00
2018-07-06T18:13:49.907Z,40.90
2018-07-06T18:16:19.713Z,40.90
2018-07-06T18:18:49.106Z,41.00
2018-07-06T18:21:20.264Z,41.10
2018-07-06T18:23:50.000Z,41.50
2018-07-06T18:26:23.677Z,42.10
2018-07-06T18:29:00.865Z,41.80
2018-07-06T18:31:30.856Z,41.60
2018-07-06T18:34:01.992Z,41.70
2018-07-06T18:36:31.577Z,41.60
2018-07-06T18:39:01.434Z,41.60
2018-07-06T18:41:31.053Z,41.70
2018-07-06T18:44:01.661Z,41.80
2018-07-06T18:46:31.669Z,42.10
2018-07-06T18:49:03.595Z,42.30
2018-07-06T18:51:33.461Z,42.50
2018-07-06T18:54:03.631Z,42.60
2018-07-06T18:56:33.513Z,42.50
2018-07-06T18:59:05.189Z,42.60
2018-07-06T19:01:34.659Z,42.70
2018-07-06T19:04:06.243Z,42.80
2018-07-06T19:06:38.016Z,42.90
2018-07-06T19:09:08.391Z,43.10
2018-07-06T19:11:38.708Z,43.30
2018-07-06T19:14:08.644Z,44.10
2018-07-06T19:16:38.236Z,43.50
2018-07-06T19:19:09.154Z,43.80
2018-07-06T19:21:40.962Z,43.90
2018-07-06T19:24:13.341Z,44.00
2018-07-06T19:26:45.713Z,44.20
2018-07-06T19:29:16.300Z,44.50
2018-07-06T19:31:46.661Z,44.60
2018-07-06T19:34:17.830Z,44.80
2018-07-06T19:36:47.274Z,45.30
2018-07-06T19:39:18.998Z,45.50
2018-07-06T19:41:48.858Z,45.80
2018-07-06T19:44:21.389Z,45.80
2018-07-06T19:46:53.691Z,46.00
2018-07-06T19:49:23.270Z,46.30
2018-07-06T19:51:52.650Z,46.60
2018-07-06T19:54:22.255Z,46.50
2018-07-06T19:56:51.530Z,46.40
2018-07-06T19:59:26.701Z,46.50
2018-07-06T20:01:56.589Z,46.60
2018-07-06T20:04:27.018Z,46.80
2018-07-06T20:07:02.530Z,46.90
2018-07-06T20:09:31.783Z,47.20
2018-07-06T20:12:02.171Z,47.00
2018-07-06T20:14:31.837Z,47.20
2018-07-06T20:19:30.438Z,47.40
2018-07-06T20:22:00.037Z,47.50
2018-07-06T20:24:30.610Z,47.60
2018-07-06T20:27:00.539Z,47.90
2018-07-06T20:29:31.262Z,48.10
2018-07-06T20:37:01.698Z,48.20
2018-07-06T20:39:32.469Z,48.40
2018-07-06T20:42:02.364Z,48.50
2018-07-06T20:44:31.691Z,49.10
2018-07-06T20:47:00.949Z,49.30
2018-07-06T20:49:32.275Z,49.80
2018-07-06T20:52:01.501Z,49.90
2018-07-06T20:54:30.781Z,50.20
2018-07-06T20:57:00.013Z,50.50
2018-07-06T20:59:29.188Z,50.80
2018-07-06T21:01:58.293Z,51.10
2018-07-06T21:04:27.435Z,51.30
2018-07-06T21:06:56.633Z,51.50
2018-07-06T21:09:32.441Z,51.70
2018-07-06T21:12:17.016Z,51.90
2018-07-06T21:14:46.593Z,52.00
2018-07-06T21:17:20.078Z,52.30
2018-07-06T21:19:54.928Z,52.30
2018-07-06T21:22:24.229Z,52.50
2018-07-06T21:24:53.870Z,52.80
2018-07-06T21:27:23.524Z,53.10
2018-07-06T21:29:52.607Z,53.40
2018-07-06T21:32:21.981Z,53.50
2018-07-06T21:35:06.530Z,53.40
2018-07-06T21:37:36.972Z,53.50
2018-07-06T21:40:06.238Z,53.70
2018-07-06T21:42:35.248Z,54.10
2018-07-06T21:45:05.323Z,54.10
2018-07-06T21:47:37.738Z,54.30
2018-07-06T21:50:08.029Z,54.20
2018-07-06T21:52:37.336Z,54.60
2018-07-06T21:55:06.962Z,54.70
2018-07-06T21:57:36.010Z,54.90
2018-07-06T22:00:05.117Z,55.10
2018-07-06T22:02:34.701Z,55.20
2018-07-06T22:05:03.894Z,55.40
2018-07-06T22:07:32.953Z,55.60
2018-07-06T22:10:02.322Z,55.90
2018-07-06T22:12:31.653Z,56.20
2018-07-06T22:15:00.998Z,56.30
2018-07-06T22:17:30.125Z,56.40
2018-07-06T22:19:59.620Z,56.40
2018-07-06T22:22:28.762Z,56.50
2018-07-06T22:24:57.835Z,56.40
2018-07-06T22:27:26.915Z,57.20
2018-07-06T22:29:56.041Z,56.60
2018-07-06T22:32:25.329Z,56.50
2018-07-06T22:34:54.388Z,56.40
2018-07-06T22:37:23.517Z,56.40
2018-07-06T22:39:52.636Z,56.40
2018-07-06T22:42:21.709Z,56.70
2018-07-06T22:44:51.741Z,56.30
2018-07-06T22:47:21.734Z,56.30
2018-07-06T22:49:52.165Z,56.40
2018-07-06T22:52:21.944Z,56.40
2018-07-06T22:54:51.929Z,56.40
2018-07-06T22:57:22.312Z,57.10
2018-07-06T22:59:52.220Z,56.70
2018-07-06T23:02:22.027Z,56.80
2018-07-06T23:04:52.168Z,57.00
2018-07-06T23:07:21.244Z,57.00
2018-07-06T23:09:50.562Z,57.00
2018-07-06T23:12:19.616Z,56.90
2018-07-06T23:14:48.685Z,57.00
2018-07-06T23:17:17.877Z,57.30
2018-07-06T23:19:46.884Z,57.40
2018-07-06T23:23:27.788Z,57.30
2018-07-06T23:25:56.925Z,57.40
2018-07-06T23:28:25.980Z,57.10
2018-07-06T23:30:55.021Z,57.70
2018-07-06T23:33:24.111Z,57.70
2018-07-06T23:35:53.245Z,57.60
2018-07-06T23:38:22.450Z,57.90
2018-07-06T23:40:51.457Z,58.10
2018-07-06T23:43:20.485Z,58.20
2018-07-06T23:45:49.545Z,58.20
2018-07-06T23:48:27.339Z,58.40
2018-07-06T23:51:03.409Z,58.50
2018-07-06T23:53:51.569Z,58.30
2018-07-06T23:56:27.236Z,58.40
2018-07-06T23:59:02.275Z,58.50
